Blackfoot, Montana
Current Conditions -  °F | °C
As of 1:56 PM on Friday 24 Oct 2014 (Local Time) from KCTB Reporting Station
Clear Clear  
Wind Chill: 11°   Ceiling: Unl
Heat Index: 11°   Visibility: 10mi
Dew Point: -2°   Wind: 29mph
Humidity: 41%   Direction: 250°WSW
Pressure: 29.99"   Gusts: 39mph
Location:  48.5484°N, 112.952°W
Report Text: KCTB 241956Z AUTO 25025G34KT 10SM CLR 11/M02 A2999 RMK AO2 PK WND 25034/1951 SLP157 T01111017
Loading
Personal Weather Stations






























Interactive Weather Map
Tropical Storm Tracking
New forecast layout! Learn more

10-Day Weather Forecast

Advertisements
Track Severe Weather on mobile